createdAt,value
2018-12-12T00:02:04.096Z,10.33
2018-12-12T00:04:38.531Z,8.90
2018-12-12T00:07:13.179Z,9.57
2018-12-12T00:09:47.766Z,8.43
2018-12-12T00:12:22.057Z,10.10
2018-12-12T00:14:56.873Z,9.50
2018-12-12T00:17:31.226Z,8.30
2018-12-12T00:20:06.031Z,10.27
2018-12-12T00:22:42.462Z,10.23
2018-12-12T00:25:17.229Z,9.53
2018-12-12T00:27:51.433Z,10.20
2018-12-12T00:30:25.705Z,10.80
2018-12-12T00:33:00.113Z,10.73
2018-12-12T00:35:34.265Z,10.60
2018-12-12T00:38:10.155Z,11.20
2018-12-12T00:40:44.591Z,11.03
2018-12-12T00:43:18.884Z,11.00
2018-12-12T00:45:53.267Z,11.40
2018-12-12T00:48:27.668Z,11.67
2018-12-12T00:51:01.837Z,11.77
2018-12-12T00:53:37.247Z,11.00
2018-12-12T00:56:11.849Z,10.97
2018-12-12T00:58:46.249Z,10.63
2018-12-12T01:01:20.626Z,11.70
2018-12-12T01:03:54.794Z,10.50
2018-12-12T01:06:29.075Z,11.17
2018-12-12T01:09:05.439Z,10.50
2018-12-12T01:11:45.049Z,10.57
2018-12-12T01:14:20.079Z,10.90
2018-12-12T01:16:54.338Z,10.70
2018-12-12T01:19:29.062Z,10.50
2018-12-12T01:22:03.350Z,11.00
2018-12-12T01:24:37.590Z,10.10
2018-12-12T01:27:13.101Z,11.80
2018-12-12T01:29:47.956Z,10.97
2018-12-12T01:32:22.250Z,11.10
2018-12-12T01:34:56.673Z,10.70
2018-12-12T01:37:33.010Z,10.80
2018-12-12T01:40:08.322Z,9.47
2018-12-12T01:42:42.701Z,11.23
2018-12-12T01:45:16.937Z,11.00
2018-12-12T01:47:51.266Z,11.10
2018-12-12T01:50:25.571Z,10.80
2018-12-12T01:52:59.791Z,11.00
2018-12-12T01:55:34.149Z,13.47
2018-12-12T01:58:08.530Z,11.87
2018-12-12T02:00:42.757Z,11.20
2018-12-12T02:03:17.506Z,10.83
2018-12-12T02:05:51.983Z,11.70
2018-12-12T02:08:26.534Z,11.10
2018-12-12T02:11:00.766Z,10.70
2018-12-12T02:13:36.670Z,10.30
2018-12-12T02:16:11.531Z,11.63
2018-12-12T02:18:47.006Z,13.90
2018-12-12T02:21:21.450Z,17.00
2018-12-12T02:23:56.046Z,12.40
2018-12-12T02:26:30.264Z,12.17
2018-12-12T02:29:04.610Z,12.00
2018-12-12T02:31:39.062Z,14.40
2018-12-12T02:34:13.386Z,13.97
2018-12-12T02:36:47.641Z,11.50
2018-12-12T02:39:21.870Z,13.50
2018-12-12T02:41:56.213Z,14.63
2018-12-12T02:44:30.391Z,11.20
2018-12-12T02:47:04.982Z,10.67
2018-12-12T02:49:39.407Z,11.47
2018-12-12T02:52:13.935Z,11.07
2018-12-12T02:54:48.078Z,11.87
2018-12-12T02:57:22.456Z,11.77
2018-12-12T02:59:56.709Z,10.27
2018-12-12T03:02:32.426Z,11.10
2018-12-12T03:05:06.902Z,12.10
2018-12-12T03:07:41.442Z,11.50
2018-12-12T03:10:16.205Z,10.47
2018-12-12T03:12:50.415Z,11.30
2018-12-12T03:15:25.038Z,10.80
2018-12-12T03:17:59.821Z,11.70
2018-12-12T03:20:34.259Z,11.43
2018-12-12T03:23:08.594Z,11.70
2018-12-12T03:25:43.049Z,12.00
2018-12-12T03:28:17.423Z,12.37
2018-12-12T03:30:51.827Z,12.07
2018-12-12T03:33:26.301Z,12.63
2018-12-12T03:36:00.660Z,12.33
2018-12-12T03:38:35.009Z,12.40
2018-12-12T03:41:09.895Z,12.20
2018-12-12T03:43:44.206Z,12.03
2018-12-12T03:46:18.643Z,12.60
2018-12-12T03:48:52.854Z,13.23
2018-12-12T03:51:27.180Z,13.03
2018-12-12T03:54:03.426Z,12.50
2018-12-12T03:56:37.722Z,13.10
2018-12-12T03:59:12.418Z,14.63
2018-12-12T04:01:46.845Z,12.73
2018-12-12T04:04:21.223Z,12.77
2018-12-12T04:06:55.830Z,13.23
2018-12-12T04:09:30.197Z,12.10
2018-12-12T04:12:04.608Z,12.50
2018-12-12T04:14:39.804Z,12.90
2018-12-12T04:17:14.109Z,12.90
2018-12-12T04:19:48.628Z,11.80
2018-12-12T04:22:23.354Z,12.33
2018-12-12T04:24:58.726Z,12.67
2018-12-12T04:27:32.877Z,12.63
2018-12-12T04:30:08.467Z,13.93
2018-12-12T04:32:42.837Z,12.87
2018-12-12T04:35:17.015Z,14.70
2018-12-12T04:37:52.091Z,13.10
2018-12-12T04:40:26.794Z,14.27
2018-12-12T04:43:00.966Z,14.33
2018-12-12T04:45:35.364Z,15.60
2018-12-12T04:48:10.699Z,14.17
2018-12-12T04:50:45.005Z,13.87
2018-12-12T04:53:19.204Z,14.40
2018-12-12T04:55:55.199Z,14.67
2018-12-12T04:58:29.602Z,15.20
2018-12-12T05:01:03.895Z,14.93
2018-12-12T05:03:38.413Z,14.27
2018-12-12T05:06:14.051Z,13.70
2018-12-12T05:08:48.549Z,15.07
2018-12-12T05:11:22.883Z,15.30
2018-12-12T05:13:57.151Z,14.00
2018-12-12T05:16:31.709Z,14.23
2018-12-12T05:19:07.730Z,13.77
2018-12-12T05:21:42.025Z,14.30
2018-12-12T05:24:16.414Z,14.70
2018-12-12T05:26:50.745Z,15.20
2018-12-12T05:29:25.118Z,15.50
2018-12-12T05:31:59.648Z,14.30
2018-12-12T05:34:34.040Z,14.00
2018-12-12T05:37:08.439Z,14.63
2018-12-12T05:39:42.754Z,14.70
2018-12-12T05:42:17.101Z,14.33
2018-12-12T05:44:51.432Z,14.83
2018-12-12T05:47:25.933Z,14.53
2018-12-12T05:50:00.555Z,15.03
2018-12-12T05:52:34.939Z,14.07
2018-12-12T05:55:09.182Z,13.97
2018-12-12T05:57:43.415Z,13.17
2018-12-12T06:00:18.119Z,12.33
2018-12-12T06:02:52.358Z,14.57
2018-12-12T06:05:27.954Z,13.70
2018-12-12T06:08:02.308Z,14.43
2018-12-12T06:10:36.739Z,13.00
2018-12-12T06:13:10.954Z,14.47
2018-12-12T06:15:45.237Z,14.10
2018-12-12T06:18:20.561Z,14.37
2018-12-12T06:20:54.965Z,13.70
2018-12-12T06:23:29.991Z,13.67
2018-12-12T06:26:04.310Z,14.33
2018-12-12T06:28:38.605Z,14.03
2018-12-12T06:31:12.875Z,14.03
2018-12-12T06:33:49.058Z,13.70
2018-12-12T06:36:23.258Z,15.53
2018-12-12T06:38:57.654Z,15.03
2018-12-12T06:41:31.984Z,14.50
2018-12-12T06:44:07.818Z,14.53
2018-12-12T06:46:42.089Z,16.07
2018-12-12T06:49:16.854Z,14.97
2018-12-12T06:51:51.329Z,14.60
2018-12-12T06:54:25.806Z,15.53
2018-12-12T06:57:00.332Z,14.47
2018-12-12T06:59:34.599Z,15.33
2018-12-12T07:02:08.885Z,15.90
2018-12-12T07:04:43.801Z,15.27
2018-12-12T07:07:18.288Z,14.00
2018-12-12T07:09:52.657Z,14.80
2018-12-12T07:12:26.962Z,15.60
2018-12-12T07:15:01.307Z,13.70
2018-12-12T07:17:35.790Z,14.50
2018-12-12T07:20:10.102Z,16.20
2018-12-12T07:22:44.357Z,15.77
2018-12-12T07:25:18.815Z,15.50
2018-12-12T07:27:53.073Z,15.20
2018-12-12T07:30:27.631Z,15.50
2018-12-12T07:33:01.949Z,14.80
2018-12-12T07:35:36.382Z,13.50
2018-12-12T07:38:11.307Z,15.40
2018-12-12T07:40:45.713Z,13.27
2018-12-12T07:43:19.925Z,14.90
2018-12-12T07:45:54.485Z,15.63
2018-12-12T07:48:28.797Z,15.70
2018-12-12T07:51:04.570Z,15.90
2018-12-12T07:53:38.894Z,15.80
2018-12-12T07:56:13.285Z,14.80
2018-12-12T07:58:47.928Z,14.67
2018-12-12T08:01:22.956Z,15.13
2018-12-12T08:03:57.220Z,15.97
2018-12-12T08:06:31.652Z,15.60
2018-12-12T08:09:07.674Z,15.40
2018-12-12T08:11:43.082Z,16.00
2018-12-12T08:14:17.421Z,14.97
2018-12-12T08:16:51.777Z,16.03
2018-12-12T08:19:31.431Z,14.47
2018-12-12T08:22:06.396Z,14.33
2018-12-12T08:24:40.871Z,14.57
2018-12-12T08:27:15.210Z,15.00
2018-12-12T08:29:49.497Z,14.80
2018-12-12T08:32:24.034Z,12.90
2018-12-12T08:34:58.642Z,13.60
2018-12-12T08:37:34.010Z,13.37
2018-12-12T08:40:09.016Z,12.60
2018-12-12T08:42:43.593Z,13.70
2018-12-12T08:45:17.965Z,13.83
2018-12-12T08:47:52.207Z,12.43
2018-12-12T08:50:26.461Z,11.60
2018-12-12T08:53:00.885Z,11.00
2018-12-12T08:55:35.818Z,9.87
2018-12-12T08:58:10.100Z,10.33
2018-12-12T09:00:44.573Z,10.47
2018-12-12T09:03:18.893Z,10.27
2018-12-12T09:05:54.714Z,10.70
2018-12-12T09:08:29.062Z,11.10
2018-12-12T09:11:03.547Z,12.10
2018-12-12T09:13:38.182Z,12.10
2018-12-12T09:16:12.497Z,12.30
2018-12-12T09:18:46.786Z,13.30
2018-12-12T09:21:21.090Z,11.23
2018-12-12T09:23:55.357Z,13.33
2018-12-12T09:26:29.730Z,13.13
2018-12-12T09:29:05.924Z,12.20
2018-12-12T09:31:40.355Z,11.97
2018-12-12T09:34:14.740Z,13.40
2018-12-12T09:36:51.255Z,12.70
2018-12-12T09:39:25.682Z,12.00
2018-12-12T09:42:00.001Z,13.27
2018-12-12T09:44:34.413Z,13.70
2018-12-12T09:47:08.861Z,13.93
2018-12-12T09:49:43.301Z,13.20
2018-12-12T09:52:17.825Z,12.30
2018-12-12T09:54:52.058Z,12.90
2018-12-12T09:57:27.874Z,14.30
2018-12-12T10:00:02.211Z,14.10
2018-12-12T10:02:36.498Z,14.60
2018-12-12T10:05:10.638Z,14.30
2018-12-12T10:07:45.083Z,14.67
2018-12-12T10:10:20.377Z,11.80
2018-12-12T10:12:54.682Z,14.33
2018-12-12T10:15:28.902Z,12.93
2018-12-12T10:18:03.262Z,16.07
2018-12-12T10:20:37.379Z,15.00
2018-12-12T10:23:11.743Z,12.77
2018-12-12T10:25:47.631Z,13.63
2018-12-12T10:28:22.074Z,13.23
2018-12-12T10:30:56.261Z,15.07
2018-12-12T10:33:30.609Z,12.57
2018-12-12T10:36:05.042Z,12.60
2018-12-12T10:38:39.274Z,11.30
2018-12-12T10:41:15.306Z,12.33
2018-12-12T10:43:49.562Z,10.90
2018-12-12T10:46:23.774Z,11.93
2018-12-12T10:48:58.138Z,12.20
2018-12-12T10:51:32.753Z,11.43
2018-12-12T10:54:07.054Z,11.97
2018-12-12T10:56:41.337Z,13.20
2018-12-12T10:59:16.908Z,12.27
2018-12-12T11:01:55.497Z,12.87
2018-12-12T11:04:29.742Z,12.47
2018-12-12T11:07:04.285Z,12.50
2018-12-12T11:09:38.603Z,11.13
2018-12-12T11:12:13.462Z,11.80
2018-12-12T11:14:47.811Z,11.07
2018-12-12T11:17:23.978Z,11.13
2018-12-12T11:19:58.198Z,11.33
2018-12-12T11:22:32.629Z,11.00
2018-12-12T11:25:07.044Z,12.67
2018-12-12T11:27:41.441Z,11.80
2018-12-12T11:30:17.218Z,13.30
2018-12-12T11:32:51.516Z,13.30
2018-12-12T11:35:27.198Z,10.57
2018-12-12T11:38:01.382Z,11.13
2018-12-12T11:40:35.998Z,11.60
2018-12-12T11:43:12.545Z,12.93
2018-12-12T11:45:46.870Z,12.83
2018-12-12T11:48:21.089Z,13.77
2018-12-12T11:50:56.699Z,13.30
2018-12-12T11:53:30.972Z,13.53
2018-12-12T11:56:05.369Z,12.40
2018-12-12T11:58:39.619Z,12.80
2018-12-12T12:01:14.123Z,13.23
2018-12-12T12:03:48.463Z,13.13
2018-12-12T12:06:22.837Z,13.50
2018-12-12T12:08:59.262Z,12.77
2018-12-12T12:11:33.670Z,13.47
2018-12-12T12:14:08.069Z,13.63
2018-12-12T12:16:42.382Z,12.47
2018-12-12T12:19:16.722Z,13.10
2018-12-12T12:21:52.291Z,13.57
2018-12-12T12:24:26.583Z,15.00
2018-12-12T12:27:01.013Z,14.23
2018-12-12T12:29:35.365Z,13.90
2018-12-12T12:32:11.816Z,12.07
2018-12-12T12:34:46.238Z,12.07
2018-12-12T12:37:20.551Z,11.53
2018-12-12T12:39:55.005Z,11.63
2018-12-12T12:42:29.582Z,11.10
2018-12-12T12:45:04.469Z,11.33
2018-12-12T12:47:40.319Z,12.30
2018-12-12T12:50:14.649Z,12.10
2018-12-12T12:52:48.877Z,13.43
2018-12-12T12:55:23.247Z,13.57
2018-12-12T12:57:57.548Z,12.80
2018-12-12T13:00:31.890Z,13.20
2018-12-12T13:03:08.716Z,13.57
2018-12-12T13:05:43.161Z,14.50
2018-12-12T13:08:17.542Z,14.40
2018-12-12T13:10:52.030Z,13.47
2018-12-12T13:13:26.554Z,14.37
2018-12-12T13:16:01.181Z,13.57
2018-12-12T13:18:35.469Z,15.37
2018-12-12T13:21:09.965Z,14.40
2018-12-12T13:23:45.109Z,15.00
2018-12-12T13:26:19.643Z,15.60
2018-12-12T13:28:54.272Z,14.07
2018-12-12T13:31:28.617Z,15.00
2018-12-12T13:34:02.801Z,13.97
2018-12-12T13:36:37.814Z,15.93
2018-12-12T13:39:12.080Z,14.77
2018-12-12T13:41:48.123Z,15.03
2018-12-12T13:44:22.417Z,13.63
2018-12-12T13:46:56.833Z,13.60
2018-12-12T13:49:33.469Z,13.80
2018-12-12T13:52:07.946Z,14.00
2018-12-12T13:54:43.299Z,14.33
2018-12-12T13:57:18.474Z,13.60
2018-12-12T13:59:52.929Z,13.20
2018-12-12T14:02:27.351Z,12.97
2018-12-12T14:05:01.815Z,10.43
2018-12-12T14:07:38.155Z,12.10
2018-12-12T14:10:12.572Z,12.63
2018-12-12T14:12:46.888Z,12.20
2018-12-12T14:15:21.174Z,12.23
2018-12-12T14:17:55.561Z,13.20
2018-12-12T14:20:29.953Z,12.33
2018-12-12T14:23:04.730Z,14.70
2018-12-12T14:25:39.043Z,13.23
2018-12-12T14:28:13.210Z,13.73
2018-12-12T14:30:48.269Z,14.43
2018-12-12T14:33:22.567Z,14.73
2018-12-12T14:36:01.027Z,13.90
2018-12-12T14:38:33.250Z,14.20
2018-12-12T14:41:07.779Z,15.07
2018-12-12T14:43:42.201Z,13.83
2018-12-12T14:46:16.658Z,15.17
2018-12-12T14:48:50.982Z,15.70
2018-12-12T14:51:25.454Z,15.00
2018-12-12T14:53:59.870Z,15.67
2018-12-12T14:56:34.263Z,15.17
2018-12-12T14:59:08.678Z,14.80
2018-12-12T15:01:43.296Z,14.60
2018-12-12T15:04:18.516Z,14.80
2018-12-12T15:06:54.629Z,14.43
2018-12-12T15:09:28.991Z,14.63
2018-12-12T15:12:03.446Z,15.03
2018-12-12T15:14:37.581Z,16.83
2018-12-12T15:17:11.777Z,15.93
2018-12-12T15:19:46.039Z,16.60
2018-12-12T15:22:20.734Z,16.20
2018-12-12T15:24:55.194Z,17.10
2018-12-12T15:27:29.615Z,17.40
2018-12-12T15:30:04.162Z,17.70
2018-12-12T15:32:38.640Z,15.60
2018-12-12T15:35:13.123Z,16.57
2018-12-12T15:37:48.893Z,17.43
2018-12-12T15:40:23.598Z,16.97
2018-12-12T15:42:57.788Z,17.70
2018-12-12T15:45:34.143Z,17.53
2018-12-12T15:48:08.553Z,15.50
2018-12-12T15:50:44.294Z,16.73
2018-12-12T15:53:18.782Z,15.20
2018-12-12T15:55:53.057Z,16.90
2018-12-12T15:58:27.626Z,17.40
2018-12-12T16:01:02.180Z,16.73
2018-12-12T16:03:36.447Z,16.33
2018-12-12T16:06:12.509Z,18.30
2018-12-12T16:08:46.855Z,16.77
2018-12-12T16:11:21.462Z,17.47
2018-12-12T16:13:55.861Z,16.60
2018-12-12T16:16:32.335Z,16.43
2018-12-12T16:19:06.941Z,17.13
2018-12-12T16:21:41.241Z,17.30
2018-12-12T16:24:15.517Z,18.57
2018-12-12T16:26:50.086Z,17.13
2018-12-12T16:29:24.526Z,17.10
2018-12-12T16:31:59.126Z,17.20
2018-12-12T16:34:33.370Z,17.20
2018-12-12T16:37:07.678Z,18.20
2018-12-12T16:39:42.034Z,17.10
2018-12-12T16:42:16.461Z,16.30
2018-12-12T16:44:50.897Z,16.83
2018-12-12T16:47:26.782Z,16.73
2018-12-12T16:50:01.199Z,18.60
2018-12-12T16:52:35.587Z,17.30
2018-12-12T16:55:09.860Z,20.57
2018-12-12T16:57:44.175Z,18.97
2018-12-12T17:00:18.405Z,16.87
2018-12-12T17:02:52.814Z,16.50
2018-12-12T17:05:27.715Z,17.47
2018-12-12T17:08:02.142Z,17.40
2018-12-12T17:10:36.852Z,16.27
2018-12-12T17:13:11.293Z,14.87
2018-12-12T17:15:47.293Z,15.03
2018-12-12T17:18:23.616Z,14.63
2018-12-12T17:20:57.998Z,14.43
2018-12-12T17:23:33.923Z,14.70
2018-12-12T17:26:08.093Z,15.23
2018-12-12T17:28:42.622Z,14.73
2018-12-12T17:31:18.269Z,15.60
2018-12-12T17:33:52.693Z,14.67
2018-12-12T17:36:27.074Z,14.17
2018-12-12T17:39:01.447Z,15.77
2018-12-12T17:41:36.040Z,15.70
2018-12-12T17:44:10.446Z,15.73
2018-12-12T17:46:44.685Z,14.87
2018-12-12T17:49:18.820Z,15.90
2018-12-12T17:51:53.002Z,13.90
2018-12-12T17:54:27.249Z,14.97
2018-12-12T17:57:01.497Z,16.33
2018-12-12T17:59:35.705Z,15.50
2018-12-12T18:02:10.117Z,14.73
2018-12-12T18:04:44.444Z,15.27
2018-12-12T18:07:21.130Z,16.03
2018-12-12T18:09:55.316Z,16.23
2018-12-12T18:12:29.789Z,15.80
2018-12-12T18:15:04.439Z,15.70
2018-12-12T18:17:38.638Z,15.93
2018-12-12T18:20:12.962Z,15.30
2018-12-12T18:22:47.294Z,16.87
2018-12-12T18:25:21.758Z,15.80
2018-12-12T18:27:56.097Z,17.23
2018-12-12T18:30:30.413Z,17.70
2018-12-12T18:33:04.846Z,15.57
2018-12-12T18:35:39.261Z,17.43
2018-12-12T18:38:13.570Z,17.77
2018-12-12T18:40:48.022Z,17.27
2018-12-12T18:43:22.260Z,17.83
2018-12-12T18:45:56.571Z,16.60
2018-12-12T18:48:31.050Z,17.10
2018-12-12T18:51:05.382Z,16.03
2018-12-12T18:53:40.006Z,16.77
2018-12-12T18:56:14.493Z,16.73
2018-12-12T18:58:48.757Z,15.30
2018-12-12T19:01:23.241Z,16.80
2018-12-12T19:03:57.621Z,16.93
2018-12-12T19:06:31.947Z,15.90
2018-12-12T19:09:06.504Z,15.63
2018-12-12T19:11:44.385Z,15.70
2018-12-12T19:14:17.638Z,16.73
2018-12-12T19:16:52.170Z,16.70
2018-12-12T19:19:26.348Z,15.13
2018-12-12T19:22:03.082Z,15.97
2018-12-12T19:24:37.402Z,15.47
2018-12-12T19:27:11.772Z,16.77
2018-12-12T19:29:45.982Z,17.27
2018-12-12T19:32:20.249Z,17.93
2018-12-12T19:34:54.506Z,16.07
2018-12-12T19:37:29.066Z,16.53
2018-12-12T19:40:03.750Z,16.60
2018-12-12T19:42:38.110Z,16.30
2018-12-12T19:45:12.582Z,15.80
2018-12-12T19:47:47.022Z,17.30
2018-12-12T19:50:21.530Z,18.10
2018-12-12T19:52:55.895Z,19.20
2018-12-12T19:55:30.191Z,17.00
2018-12-12T19:58:05.492Z,18.50
2018-12-12T20:00:39.869Z,16.93
2018-12-12T20:03:14.215Z,16.63
2018-12-12T20:05:48.544Z,17.20
2018-12-12T20:08:23.381Z,16.20
2018-12-12T20:10:57.722Z,17.83
2018-12-12T20:13:32.001Z,16.47
2018-12-12T20:16:06.500Z,17.53
2018-12-12T20:18:40.815Z,17.07
2018-12-12T20:21:15.273Z,15.87
2018-12-12T20:23:49.605Z,15.90
2018-12-12T20:26:23.826Z,17.00
2018-12-12T20:28:58.185Z,17.27
2018-12-12T20:31:32.441Z,17.00
2018-12-12T20:34:06.760Z,16.07
2018-12-12T20:36:41.329Z,17.17
2018-12-12T20:39:21.970Z,15.80
2018-12-12T20:41:56.855Z,17.60
2018-12-12T20:44:31.869Z,16.97
2018-12-12T20:47:06.016Z,17.67
2018-12-12T20:52:23.166Z,15.97
2018-12-12T20:54:57.720Z,15.67
2018-12-12T20:57:32.195Z,17.43
2018-12-12T21:00:15.902Z,17.40
2018-12-12T21:02:50.283Z,17.30
2018-12-12T21:05:24.781Z,18.37
2018-12-12T21:07:59.042Z,17.70
2018-12-12T21:10:34.644Z,17.90
2018-12-12T21:13:08.971Z,17.00
2018-12-12T21:15:47.810Z,16.77
2018-12-12T21:18:22.229Z,17.03
2018-12-12T21:20:58.443Z,17.83
2018-12-12T21:23:32.673Z,16.50
2018-12-12T21:26:07.262Z,16.97
2018-12-12T21:28:41.635Z,17.30
2018-12-12T21:31:15.957Z,16.93
2018-12-12T21:33:52.059Z,15.23
2018-12-12T21:36:26.368Z,15.83
2018-12-12T21:39:00.613Z,16.67
2018-12-12T21:41:34.931Z,16.60
2018-12-12T21:44:09.246Z,16.47
2018-12-12T21:46:43.473Z,16.50
2018-12-12T21:49:19.129Z,18.03
2018-12-12T21:51:53.427Z,17.93
2018-12-12T21:54:27.933Z,15.90
2018-12-12T21:57:02.272Z,17.80
2018-12-12T21:59:36.650Z,17.50
2018-12-12T22:02:11.571Z,16.30
2018-12-12T22:04:45.902Z,17.57
2018-12-12T22:07:20.824Z,16.93
2018-12-12T22:09:55.395Z,17.77
2018-12-12T22:12:29.979Z,18.50
2018-12-12T22:17:36.144Z,18.57
2018-12-12T22:20:10.492Z,15.40
2018-12-12T22:22:46.459Z,16.90
2018-12-12T22:25:20.851Z,15.60
2018-12-12T22:27:55.141Z,17.37
2018-12-12T22:30:30.015Z,16.20
2018-12-12T22:33:04.545Z,16.20
2018-12-12T22:35:39.153Z,17.57
2018-12-12T22:38:13.393Z,18.17
2018-12-12T22:40:47.951Z,17.90
2018-12-12T22:43:22.238Z,16.13
2018-12-12T22:45:56.694Z,16.13
2018-12-12T22:48:30.935Z,16.00
2018-12-12T22:51:05.297Z,16.20
2018-12-12T22:53:40.233Z,15.10
2018-12-12T22:56:14.652Z,15.57
2018-12-12T22:58:49.017Z,16.17
2018-12-12T23:01:24.754Z,15.83
2018-12-12T23:03:59.050Z,14.93
2018-12-12T23:06:34.458Z,15.37
2018-12-12T23:09:08.901Z,16.40
2018-12-12T23:11:43.422Z,15.10
2018-12-12T23:14:18.162Z,16.07
2018-12-12T23:16:52.539Z,17.47
2018-12-12T23:19:26.901Z,16.27
2018-12-12T23:22:01.466Z,15.73
2018-12-12T23:24:35.738Z,16.93
2018-12-12T23:27:10.178Z,17.60
2018-12-12T23:29:45.027Z,17.13
2018-12-12T23:32:19.397Z,16.17
2018-12-12T23:34:54.426Z,15.57
2018-12-12T23:37:28.770Z,15.80
2018-12-12T23:40:03.078Z,16.50
2018-12-12T23:42:37.281Z,15.03
2018-12-12T23:45:12.114Z,16.40
2018-12-12T23:47:46.538Z,16.57
2018-12-12T23:50:21.015Z,15.70
2018-12-12T23:52:55.902Z,17.50
2018-12-12T23:55:30.189Z,16.53
2018-12-12T23:58:04.630Z,14.33
